sensor_id;sensor_type;location;lat;lon;timestamp;P1;durP1;ratioP1;P2;durP2;ratioP2
11743;SDS011;5929;51.906;7.674;2022-10-31T00:00:17;30.88;;;18.00;;
11743;SDS011;5929;51.906;7.674;2022-10-31T00:02:44;32.05;;;20.02;;
11743;SDS011;5929;51.906;7.674;2022-10-31T00:05:11;38.05;;;18.23;;
11743;SDS011;5929;51.906;7.674;2022-10-31T00:07:38;37.30;;;19.42;;
11743;SDS011;5929;51.906;7.674;2022-10-31T00:10:07;32.92;;;19.90;;
11743;SDS011;5929;51.906;7.674;2022-10-31T00:12:37;25.98;;;19.00;;
11743;SDS011;5929;51.906;7.674;2022-10-31T00:15:04;32.70;;;19.95;;
11743;SDS011;5929;51.906;7.674;2022-10-31T00:17:34;30.95;;;18.90;;
11743;SDS011;5929;51.906;7.674;2022-10-31T00:20:01;34.03;;;19.80;;
11743;SDS011;5929;51.906;7.674;2022-10-31T00:22:28;30.52;;;19.38;;
11743;SDS011;5929;51.906;7.674;2022-10-31T00:24:54;33.92;;;19.85;;
11743;SDS011;5929;51.906;7.674;2022-10-31T00:27:25;29.85;;;19.00;;
11743;SDS011;5929;51.906;7.674;2022-10-31T00:29:52;32.47;;;20.38;;
11743;SDS011;5929;51.906;7.674;2022-10-31T00:32:19;30.70;;;19.77;;
11743;SDS011;5929;51.906;7.674;2022-10-31T00:34:45;32.63;;;18.98;;
11743;SDS011;5929;51.906;7.674;2022-10-31T00:37:12;33.20;;;19.33;;
11743;SDS011;5929;51.906;7.674;2022-10-31T00:39:39;29.30;;;18.42;;
11743;SDS011;5929;51.906;7.674;2022-10-31T00:42:06;27.35;;;19.23;;
11743;SDS011;5929;51.906;7.674;2022-10-31T00:44:34;27.92;;;19.38;;
11743;SDS011;5929;51.906;7.674;2022-10-31T00:47:01;31.55;;;19.85;;
11743;SDS011;5929;51.906;7.674;2022-10-31T00:49:28;31.33;;;19.60;;
11743;SDS011;5929;51.906;7.674;2022-10-31T00:51:54;30.80;;;19.75;;
11743;SDS011;5929;51.906;7.674;2022-10-31T00:54:21;34.90;;;19.30;;
11743;SDS011;5929;51.906;7.674;2022-10-31T00:56:48;32.88;;;20.35;;
11743;SDS011;5929;51.906;7.674;2022-10-31T00:59:15;31.85;;;19.05;;
11743;SDS011;5929;51.906;7.674;2022-10-31T01:01:43;30.33;;;19.60;;
11743;SDS011;5929;51.906;7.674;2022-10-31T01:04:09;34.20;;;19.23;;
11743;SDS011;5929;51.906;7.674;2022-10-31T01:06:36;32.45;;;19.60;;
11743;SDS011;5929;51.906;7.674;2022-10-31T01:09:03;28.08;;;18.80;;
11743;SDS011;5929;51.906;7.674;2022-10-31T01:11:30;35.05;;;19.27;;
11743;SDS011;5929;51.906;7.674;2022-10-31T01:13:57;25.60;;;17.17;;
11743;SDS011;5929;51.906;7.674;2022-10-31T01:16:25;32.63;;;18.90;;
11743;SDS011;5929;51.906;7.674;2022-10-31T01:18:53;37.33;;;20.85;;
11743;SDS011;5929;51.906;7.674;2022-10-31T01:21:21;30.40;;;19.02;;
11743;SDS011;5929;51.906;7.674;2022-10-31T01:23:49;31.88;;;19.40;;
11743;SDS011;5929;51.906;7.674;2022-10-31T01:26:17;30.75;;;19.40;;
11743;SDS011;5929;51.906;7.674;2022-10-31T01:28:46;32.00;;;19.23;;
11743;SDS011;5929;51.906;7.674;2022-10-31T01:31:13;31.40;;;20.50;;
11743;SDS011;5929;51.906;7.674;2022-10-31T01:33:41;32.05;;;19.80;;
11743;SDS011;5929;51.906;7.674;2022-10-31T01:36:16;29.02;;;19.60;;
11743;SDS011;5929;51.906;7.674;2022-10-31T01:38:45;30.08;;;18.83;;
11743;SDS011;5929;51.906;7.674;2022-10-31T01:41:13;30.95;;;19.20;;
11743;SDS011;5929;51.906;7.674;2022-10-31T01:43:45;31.17;;;18.48;;
11743;SDS011;5929;51.906;7.674;2022-10-31T01:46:15;33.35;;;18.67;;
11743;SDS011;5929;51.906;7.674;2022-10-31T01:48:45;30.23;;;19.02;;
11743;SDS011;5929;51.906;7.674;2022-10-31T01:51:13;33.92;;;20.13;;
11743;SDS011;5929;51.906;7.674;2022-10-31T01:53:44;28.88;;;18.55;;
11743;SDS011;5929;51.906;7.674;2022-10-31T01:56:11;30.20;;;18.73;;
11743;SDS011;5929;51.906;7.674;2022-10-31T01:58:42;34.08;;;20.35;;
11743;SDS011;5929;51.906;7.674;2022-10-31T02:01:11;33.40;;;20.17;;
11743;SDS011;5929;51.906;7.674;2022-10-31T02:03:39;31.92;;;20.50;;
11743;SDS011;5929;51.906;7.674;2022-10-31T02:06:08;32.78;;;20.33;;
11743;SDS011;5929;51.906;7.674;2022-10-31T02:08:41;34.72;;;22.20;;
11743;SDS011;5929;51.906;7.674;2022-10-31T02:11:09;36.05;;;21.42;;
11743;SDS011;5929;51.906;7.674;2022-10-31T02:13:37;34.03;;;21.10;;
11743;SDS011;5929;51.906;7.674;2022-10-31T02:16:04;34.30;;;20.27;;
11743;SDS011;5929;51.906;7.674;2022-10-31T02:18:34;31.83;;;20.90;;
11743;SDS011;5929;51.906;7.674;2022-10-31T02:21:03;30.45;;;20.38;;
11743;SDS011;5929;51.906;7.674;2022-10-31T02:29:43;33.60;;;20.33;;
11743;SDS011;5929;51.906;7.674;2022-10-31T02:32:41;30.58;;;20.30;;
11743;SDS011;5929;51.906;7.674;2022-10-31T02:35:16;31.73;;;20.08;;
11743;SDS011;5929;51.906;7.674;2022-10-31T02:37:53;38.10;;;19.85;;
11743;SDS011;5929;51.906;7.674;2022-10-31T02:40:25;33.05;;;20.85;;
11743;SDS011;5929;51.906;7.674;2022-10-31T02:42:59;31.77;;;20.58;;
11743;SDS011;5929;51.906;7.674;2022-10-31T02:45:33;28.77;;;18.92;;
11743;SDS011;5929;51.906;7.674;2022-10-31T02:48:08;35.70;;;19.25;;
11743;SDS011;5929;51.906;7.674;2022-10-31T02:50:39;34.22;;;22.33;;
11743;SDS011;5929;51.906;7.674;2022-10-31T02:53:07;40.53;;;23.08;;
11743;SDS011;5929;51.906;7.674;2022-10-31T02:58:27;36.95;;;23.10;;
11743;SDS011;5929;51.906;7.674;2022-10-31T03:01:01;40.47;;;21.85;;
11743;SDS011;5929;51.906;7.674;2022-10-31T03:03:42;36.67;;;22.90;;
11743;SDS011;5929;51.906;7.674;2022-10-31T03:06:22;35.03;;;21.38;;
11743;SDS011;5929;51.906;7.674;2022-10-31T03:08:54;43.25;;;23.67;;
11743;SDS011;5929;51.906;7.674;2022-10-31T03:11:29;36.58;;;21.98;;
11743;SDS011;5929;51.906;7.674;2022-10-31T03:14:03;35.53;;;22.58;;
11743;SDS011;5929;51.906;7.674;2022-10-31T03:16:37;39.20;;;21.95;;
11743;SDS011;5929;51.906;7.674;2022-10-31T03:19:13;38.13;;;23.63;;
11743;SDS011;5929;51.906;7.674;2022-10-31T03:21:43;41.30;;;24.30;;
11743;SDS011;5929;51.906;7.674;2022-10-31T03:24:12;38.00;;;24.00;;
11743;SDS011;5929;51.906;7.674;2022-10-31T03:26:41;37.03;;;24.10;;
11743;SDS011;5929;51.906;7.674;2022-10-31T03:29:11;35.63;;;22.55;;
11743;SDS011;5929;51.906;7.674;2022-10-31T03:31:43;35.17;;;22.80;;
11743;SDS011;5929;51.906;7.674;2022-10-31T03:34:17;40.35;;;21.88;;
11743;SDS011;5929;51.906;7.674;2022-10-31T03:36:49;39.50;;;21.92;;
11743;SDS011;5929;51.906;7.674;2022-10-31T03:39:19;36.47;;;21.52;;
11743;SDS011;5929;51.906;7.674;2022-10-31T03:41:48;33.05;;;20.20;;
11743;SDS011;5929;51.906;7.674;2022-10-31T03:44:20;36.50;;;21.42;;
11743;SDS011;5929;51.906;7.674;2022-10-31T03:46:49;38.10;;;20.90;;
11743;SDS011;5929;51.906;7.674;2022-10-31T03:49:18;35.80;;;21.10;;
11743;SDS011;5929;51.906;7.674;2022-10-31T03:51:46;37.03;;;21.63;;
11743;SDS011;5929;51.906;7.674;2022-10-31T03:54:20;39.15;;;20.98;;
11743;SDS011;5929;51.906;7.674;2022-10-31T03:56:52;32.90;;;20.75;;
11743;SDS011;5929;51.906;7.674;2022-10-31T03:59:23;37.25;;;21.83;;
11743;SDS011;5929;51.906;7.674;2022-10-31T04:01:56;36.15;;;20.30;;
11743;SDS011;5929;51.906;7.674;2022-10-31T04:04:28;35.35;;;19.40;;
11743;SDS011;5929;51.906;7.674;2022-10-31T04:06:56;37.78;;;19.38;;
11743;SDS011;5929;51.906;7.674;2022-10-31T04:09:25;34.60;;;20.08;;
11743;SDS011;5929;51.906;7.674;2022-10-31T04:11:54;34.05;;;19.58;;
11743;SDS011;5929;51.906;7.674;2022-10-31T04:14:24;33.50;;;20.23;;
11743;SDS011;5929;51.906;7.674;2022-10-31T04:16:53;40.63;;;21.48;;
11743;SDS011;5929;51.906;7.674;2022-10-31T04:19:20;30.00;;;19.70;;
11743;SDS011;5929;51.906;7.674;2022-10-31T04:21:48;32.38;;;20.63;;
11743;SDS011;5929;51.906;7.674;2022-10-31T04:24:18;34.08;;;20.67;;
11743;SDS011;5929;51.906;7.674;2022-10-31T04:26:47;34.80;;;19.60;;
11743;SDS011;5929;51.906;7.674;2022-10-31T04:29:14;36.10;;;21.38;;
11743;SDS011;5929;51.906;7.674;2022-10-31T04:31:41;32.90;;;20.77;;
11743;SDS011;5929;51.906;7.674;2022-10-31T04:34:07;30.42;;;19.48;;
11743;SDS011;5929;51.906;7.674;2022-10-31T04:36:34;30.38;;;19.10;;
11743;SDS011;5929;51.906;7.674;2022-10-31T04:39:03;33.75;;;19.67;;
11743;SDS011;5929;51.906;7.674;2022-10-31T04:41:29;26.77;;;17.73;;
11743;SDS011;5929;51.906;7.674;2022-10-31T04:43:56;26.13;;;17.73;;
11743;SDS011;5929;51.906;7.674;2022-10-31T04:46:23;29.60;;;18.13;;
11743;SDS011;5929;51.906;7.674;2022-10-31T04:48:50;27.67;;;17.33;;
11743;SDS011;5929;51.906;7.674;2022-10-31T04:51:16;31.27;;;18.50;;
11743;SDS011;5929;51.906;7.674;2022-10-31T04:53:43;29.23;;;18.15;;
11743;SDS011;5929;51.906;7.674;2022-10-31T04:56:11;27.95;;;19.50;;
11743;SDS011;5929;51.906;7.674;2022-10-31T04:58:41;32.58;;;19.92;;
11743;SDS011;5929;51.906;7.674;2022-10-31T05:01:07;35.20;;;19.40;;
11743;SDS011;5929;51.906;7.674;2022-10-31T05:03:34;33.78;;;19.40;;
11743;SDS011;5929;51.906;7.674;2022-10-31T05:06:01;29.42;;;18.48;;
11743;SDS011;5929;51.906;7.674;2022-10-31T05:08:28;29.75;;;18.23;;
11743;SDS011;5929;51.906;7.674;2022-10-31T05:10:55;33.53;;;19.38;;
11743;SDS011;5929;51.906;7.674;2022-10-31T05:13:26;29.40;;;19.20;;
11743;SDS011;5929;51.906;7.674;2022-10-31T05:15:55;30.67;;;18.10;;
11743;SDS011;5929;51.906;7.674;2022-10-31T05:18:22;39.40;;;19.85;;
11743;SDS011;5929;51.906;7.674;2022-10-31T05:20:52;38.80;;;22.60;;
11743;SDS011;5929;51.906;7.674;2022-10-31T05:23:20;44.58;;;24.27;;
11743;SDS011;5929;51.906;7.674;2022-10-31T05:25:47;62.53;;;25.52;;
11743;SDS011;5929;51.906;7.674;2022-10-31T05:28:14;46.83;;;23.92;;
11743;SDS011;5929;51.906;7.674;2022-10-31T05:30:42;45.17;;;24.25;;
11743;SDS011;5929;51.906;7.674;2022-10-31T05:33:09;46.92;;;24.58;;
11743;SDS011;5929;51.906;7.674;2022-10-31T05:35:36;37.25;;;23.13;;
11743;SDS011;5929;51.906;7.674;2022-10-31T05:38:03;39.80;;;24.20;;
11743;SDS011;5929;51.906;7.674;2022-10-31T05:40:29;38.05;;;22.48;;
11743;SDS011;5929;51.906;7.674;2022-10-31T05:42:59;40.40;;;24.38;;
11743;SDS011;5929;51.906;7.674;2022-10-31T05:45:25;35.65;;;23.70;;
11743;SDS011;5929;51.906;7.674;2022-10-31T05:47:54;41.45;;;23.13;;
11743;SDS011;5929;51.906;7.674;2022-10-31T05:50:22;37.03;;;22.50;;
11743;SDS011;5929;51.906;7.674;2022-10-31T05:52:55;37.63;;;23.10;;
11743;SDS011;5929;51.906;7.674;2022-10-31T05:55:23;39.70;;;23.90;;
11743;SDS011;5929;51.906;7.674;2022-10-31T05:57:50;45.55;;;25.75;;
11743;SDS011;5929;51.906;7.674;2022-10-31T06:00:18;41.28;;;25.70;;
11743;SDS011;5929;51.906;7.674;2022-10-31T06:02:45;43.60;;;26.50;;
11743;SDS011;5929;51.906;7.674;2022-10-31T06:05:13;43.90;;;27.02;;
11743;SDS011;5929;51.906;7.674;2022-10-31T06:07:41;41.67;;;27.90;;
11743;SDS011;5929;51.906;7.674;2022-10-31T06:10:08;49.97;;;29.08;;
11743;SDS011;5929;51.906;7.674;2022-10-31T06:12:35;37.15;;;25.48;;
11743;SDS011;5929;51.906;7.674;2022-10-31T06:15:03;49.17;;;26.55;;
11743;SDS011;5929;51.906;7.674;2022-10-31T06:17:34;37.63;;;25.42;;
11743;SDS011;5929;51.906;7.674;2022-10-31T06:20:02;40.30;;;27.02;;
11743;SDS011;5929;51.906;7.674;2022-10-31T06:22:31;43.65;;;25.88;;
11743;SDS011;5929;51.906;7.674;2022-10-31T06:24:58;37.53;;;25.67;;
11743;SDS011;5929;51.906;7.674;2022-10-31T06:27:25;39.03;;;25.73;;
11743;SDS011;5929;51.906;7.674;2022-10-31T06:29:52;35.33;;;24.73;;
11743;SDS011;5929;51.906;7.674;2022-10-31T06:32:21;32.55;;;23.17;;
11743;SDS011;5929;51.906;7.674;2022-10-31T06:34:48;37.08;;;23.55;;
11743;SDS011;5929;51.906;7.674;2022-10-31T06:37:15;33.70;;;23.83;;
11743;SDS011;5929;51.906;7.674;2022-10-31T06:39:45;33.97;;;24.05;;
11743;SDS011;5929;51.906;7.674;2022-10-31T06:42:12;31.90;;;23.40;;
11743;SDS011;5929;51.906;7.674;2022-10-31T06:44:41;32.08;;;22.85;;
11743;SDS011;5929;51.906;7.674;2022-10-31T06:47:08;43.22;;;24.05;;
11743;SDS011;5929;51.906;7.674;2022-10-31T06:49:35;39.60;;;25.95;;
11743;SDS011;5929;51.906;7.674;2022-10-31T06:52:02;38.63;;;23.83;;
11743;SDS011;5929;51.906;7.674;2022-10-31T06:54:29;32.03;;;24.15;;
11743;SDS011;5929;51.906;7.674;2022-10-31T06:56:57;38.45;;;25.27;;
11743;SDS011;5929;51.906;7.674;2022-10-31T06:59:24;38.33;;;25.55;;
11743;SDS011;5929;51.906;7.674;2022-10-31T07:01:51;31.25;;;23.42;;
11743;SDS011;5929;51.906;7.674;2022-10-31T07:04:20;34.67;;;23.65;;
11743;SDS011;5929;51.906;7.674;2022-10-31T07:06:50;27.27;;;22.50;;
11743;SDS011;5929;51.906;7.674;2022-10-31T07:09:16;26.33;;;21.92;;
11743;SDS011;5929;51.906;7.674;2022-10-31T07:11:43;26.45;;;22.25;;
11743;SDS011;5929;51.906;7.674;2022-10-31T07:14:11;32.42;;;23.40;;
11743;SDS011;5929;51.906;7.674;2022-10-31T07:16:38;34.78;;;23.23;;
11743;SDS011;5929;51.906;7.674;2022-10-31T07:19:07;40.88;;;25.23;;
11743;SDS011;5929;51.906;7.674;2022-10-31T07:21:34;38.45;;;24.65;;
11743;SDS011;5929;51.906;7.674;2022-10-31T07:24:04;42.40;;;25.63;;
11743;SDS011;5929;51.906;7.674;2022-10-31T07:26:31;37.80;;;24.45;;
11743;SDS011;5929;51.906;7.674;2022-10-31T07:28:57;39.90;;;25.38;;
11743;SDS011;5929;51.906;7.674;2022-10-31T07:31:28;37.92;;;24.42;;
11743;SDS011;5929;51.906;7.674;2022-10-31T07:33:55;36.78;;;25.27;;
11743;SDS011;5929;51.906;7.674;2022-10-31T07:36:24;37.67;;;24.75;;
11743;SDS011;5929;51.906;7.674;2022-10-31T07:38:51;41.88;;;25.45;;
11743;SDS011;5929;51.906;7.674;2022-10-31T07:41:17;38.53;;;24.70;;
11743;SDS011;5929;51.906;7.674;2022-10-31T07:43:45;36.40;;;25.38;;
11743;SDS011;5929;51.906;7.674;2022-10-31T07:46:13;36.55;;;24.48;;
11743;SDS011;5929;51.906;7.674;2022-10-31T07:48:42;40.00;;;24.17;;
11743;SDS011;5929;51.906;7.674;2022-10-31T07:51:09;41.13;;;24.30;;
11743;SDS011;5929;51.906;7.674;2022-10-31T07:53:38;39.17;;;26.00;;
11743;SDS011;5929;51.906;7.674;2022-10-31T07:56:05;42.05;;;25.98;;
11743;SDS011;5929;51.906;7.674;2022-10-31T07:58:32;38.83;;;27.05;;
11743;SDS011;5929;51.906;7.674;2022-10-31T08:00:59;38.70;;;24.85;;
11743;SDS011;5929;51.906;7.674;2022-10-31T08:03:25;42.08;;;25.15;;
11743;SDS011;5929;51.906;7.674;2022-10-31T08:05:54;33.25;;;21.75;;
11743;SDS011;5929;51.906;7.674;2022-10-31T08:08:22;32.75;;;22.35;;
11743;SDS011;5929;51.906;7.674;2022-10-31T08:10:49;38.38;;;22.17;;
11743;SDS011;5929;51.906;7.674;2022-10-31T08:13:16;33.38;;;22.38;;
11743;SDS011;5929;51.906;7.674;2022-10-31T08:15:42;33.03;;;22.80;;
11743;SDS011;5929;51.906;7.674;2022-10-31T08:18:15;29.50;;;22.65;;
11743;SDS011;5929;51.906;7.674;2022-10-31T08:20:42;39.03;;;24.92;;
11743;SDS011;5929;51.906;7.674;2022-10-31T08:23:11;42.55;;;24.90;;
11743;SDS011;5929;51.906;7.674;2022-10-31T08:25:38;36.42;;;25.05;;
11743;SDS011;5929;51.906;7.674;2022-10-31T08:28:09;39.42;;;25.67;;
11743;SDS011;5929;51.906;7.674;2022-10-31T08:30:37;37.20;;;26.85;;
11743;SDS011;5929;51.906;7.674;2022-10-31T08:33:05;42.90;;;29.58;;
11743;SDS011;5929;51.906;7.674;2022-10-31T08:35:35;44.03;;;30.60;;
11743;SDS011;5929;51.906;7.674;2022-10-31T08:38:01;44.33;;;30.25;;
11743;SDS011;5929;51.906;7.674;2022-10-31T08:40:30;39.88;;;29.35;;
11743;SDS011;5929;51.906;7.674;2022-10-31T08:42:58;39.75;;;29.73;;
11743;SDS011;5929;51.906;7.674;2022-10-31T08:45:29;44.47;;;29.35;;
11743;SDS011;5929;51.906;7.674;2022-10-31T08:47:57;48.50;;;32.03;;
11743;SDS011;5929;51.906;7.674;2022-10-31T08:50:25;46.33;;;33.47;;
11743;SDS011;5929;51.906;7.674;2022-10-31T08:52:52;51.55;;;33.85;;
11743;SDS011;5929;51.906;7.674;2022-10-31T08:55:19;45.05;;;31.02;;
11743;SDS011;5929;51.906;7.674;2022-10-31T08:57:47;44.15;;;31.27;;
11743;SDS011;5929;51.906;7.674;2022-10-31T09:00:14;45.80;;;31.02;;
11743;SDS011;5929;51.906;7.674;2022-10-31T09:02:41;44.58;;;30.73;;
11743;SDS011;5929;51.906;7.674;2022-10-31T09:05:08;48.53;;;31.92;;
11743;SDS011;5929;51.906;7.674;2022-10-31T09:07:35;43.78;;;30.80;;
11743;SDS011;5929;51.906;7.674;2022-10-31T09:10:02;48.17;;;30.52;;
11743;SDS011;5929;51.906;7.674;2022-10-31T09:12:29;44.85;;;29.50;;
11743;SDS011;5929;51.906;7.674;2022-10-31T09:14:57;44.25;;;30.13;;
11743;SDS011;5929;51.906;7.674;2022-10-31T09:17:25;43.22;;;30.00;;
11743;SDS011;5929;51.906;7.674;2022-10-31T09:19:54;47.53;;;30.77;;
11743;SDS011;5929;51.906;7.674;2022-10-31T09:22:21;39.38;;;29.02;;
11743;SDS011;5929;51.906;7.674;2022-10-31T09:24:47;47.67;;;30.75;;
11743;SDS011;5929;51.906;7.674;2022-10-31T09:27:14;47.47;;;30.27;;
11743;SDS011;5929;51.906;7.674;2022-10-31T09:29:41;42.10;;;29.60;;
11743;SDS011;5929;51.906;7.674;2022-10-31T09:32:09;42.45;;;28.60;;
11743;SDS011;5929;51.906;7.674;2022-10-31T09:34:38;47.53;;;28.17;;
11743;SDS011;5929;51.906;7.674;2022-10-31T09:37:05;41.40;;;27.65;;
11743;SDS011;5929;51.906;7.674;2022-10-31T09:39:32;42.70;;;28.50;;
11743;SDS011;5929;51.906;7.674;2022-10-31T09:42:04;42.13;;;27.23;;
11743;SDS011;5929;51.906;7.674;2022-10-31T09:44:47;42.25;;;28.10;;
11743;SDS011;5929;51.906;7.674;2022-10-31T09:47:20;42.53;;;28.00;;
11743;SDS011;5929;51.906;7.674;2022-10-31T09:49:57;41.65;;;28.35;;
11743;SDS011;5929;51.906;7.674;2022-10-31T09:52:38;45.45;;;28.52;;
11743;SDS011;5929;51.906;7.674;2022-10-31T09:55:12;43.97;;;28.02;;
11743;SDS011;5929;51.906;7.674;2022-10-31T09:57:42;43.15;;;27.30;;
11743;SDS011;5929;51.906;7.674;2022-10-31T10:00:14;42.00;;;27.92;;
11743;SDS011;5929;51.906;7.674;2022-10-31T10:02:44;41.38;;;27.00;;
11743;SDS011;5929;51.906;7.674;2022-10-31T10:05:16;42.35;;;26.73;;
11743;SDS011;5929;51.906;7.674;2022-10-31T10:07:49;43.42;;;25.27;;
11743;SDS011;5929;51.906;7.674;2022-10-31T10:10:24;35.45;;;26.08;;
11743;SDS011;5929;51.906;7.674;2022-10-31T10:13:12;38.03;;;26.50;;
11743;SDS011;5929;51.906;7.674;2022-10-31T10:15:55;43.25;;;25.38;;
11743;SDS011;5929;51.906;7.674;2022-10-31T10:18:41;40.20;;;26.42;;
11743;SDS011;5929;51.906;7.674;2022-10-31T10:21:22;37.45;;;25.48;;
11743;SDS011;5929;51.906;7.674;2022-10-31T10:24:03;35.53;;;24.60;;
11743;SDS011;5929;51.906;7.674;2022-10-31T10:26:45;42.90;;;25.83;;
11743;SDS011;5929;51.906;7.674;2022-10-31T10:29:25;35.55;;;23.20;;
11743;SDS011;5929;51.906;7.674;2022-10-31T10:31:58;39.90;;;23.00;;
11743;SDS011;5929;51.906;7.674;2022-10-31T10:34:31;33.80;;;24.10;;
11743;SDS011;5929;51.906;7.674;2022-10-31T10:37:03;36.58;;;23.05;;
11743;SDS011;5929;51.906;7.674;2022-10-31T10:39:35;33.55;;;22.73;;
11743;SDS011;5929;51.906;7.674;2022-10-31T10:42:07;32.13;;;21.40;;
11743;SDS011;5929;51.906;7.674;2022-10-31T10:44:55;31.55;;;20.58;;
11743;SDS011;5929;51.906;7.674;2022-10-31T10:47:40;31.65;;;20.10;;
11743;SDS011;5929;51.906;7.674;2022-10-31T10:50:12;31.63;;;20.35;;
11743;SDS011;5929;51.906;7.674;2022-10-31T10:52:48;30.13;;;20.70;;
11743;SDS011;5929;51.906;7.674;2022-10-31T10:55:26;30.98;;;18.35;;
11743;SDS011;5929;51.906;7.674;2022-10-31T10:58:00;31.25;;;17.95;;
11743;SDS011;5929;51.906;7.674;2022-10-31T11:00:29;24.67;;;18.15;;
11743;SDS011;5929;51.906;7.674;2022-10-31T11:02:57;30.92;;;18.25;;
11743;SDS011;5929;51.906;7.674;2022-10-31T11:05:28;28.20;;;18.10;;
11743;SDS011;5929;51.906;7.674;2022-10-31T11:08:01;29.92;;;18.98;;
11743;SDS011;5929;51.906;7.674;2022-10-31T11:10:29;27.15;;;18.58;;
11743;SDS011;5929;51.906;7.674;2022-10-31T11:13:04;29.95;;;19.05;;
11743;SDS011;5929;51.906;7.674;2022-10-31T11:15:49;28.77;;;18.60;;
11743;SDS011;5929;51.906;7.674;2022-10-31T11:18:20;29.80;;;18.13;;
11743;SDS011;5929;51.906;7.674;2022-10-31T11:20:52;28.55;;;17.42;;
11743;SDS011;5929;51.906;7.674;2022-10-31T11:23:21;25.67;;;15.73;;
11743;SDS011;5929;51.906;7.674;2022-10-31T11:25:50;30.17;;;17.35;;
11743;SDS011;5929;51.906;7.674;2022-10-31T11:28:18;27.63;;;17.77;;
11743;SDS011;5929;51.906;7.674;2022-10-31T11:30:46;29.15;;;18.15;;
11743;SDS011;5929;51.906;7.674;2022-10-31T11:33:17;27.27;;;17.23;;
11743;SDS011;5929;51.906;7.674;2022-10-31T11:35:48;27.27;;;17.33;;
11743;SDS011;5929;51.906;7.674;2022-10-31T11:38:17;24.92;;;16.75;;
11743;SDS011;5929;51.906;7.674;2022-10-31T11:40:52;24.08;;;16.67;;
11743;SDS011;5929;51.906;7.674;2022-10-31T11:43:22;24.83;;;16.83;;
11743;SDS011;5929;51.906;7.674;2022-10-31T11:45:49;30.55;;;17.98;;
11743;SDS011;5929;51.906;7.674;2022-10-31T11:48:17;26.90;;;17.25;;
11743;SDS011;5929;51.906;7.674;2022-10-31T11:50:49;26.92;;;16.85;;
11743;SDS011;5929;51.906;7.674;2022-10-31T11:53:23;29.90;;;18.33;;
11743;SDS011;5929;51.906;7.674;2022-10-31T11:56:03;29.15;;;18.27;;
11743;SDS011;5929;51.906;7.674;2022-10-31T11:58:32;29.23;;;17.52;;
11743;SDS011;5929;51.906;7.674;2022-10-31T12:00:59;27.92;;;17.75;;
11743;SDS011;5929;51.906;7.674;2022-10-31T12:03:27;32.42;;;18.90;;
11743;SDS011;5929;51.906;7.674;2022-10-31T12:06:04;30.52;;;16.88;;
11743;SDS011;5929;51.906;7.674;2022-10-31T12:08:36;32.88;;;18.73;;
11743;SDS011;5929;51.906;7.674;2022-10-31T12:11:07;32.10;;;18.77;;
11743;SDS011;5929;51.906;7.674;2022-10-31T12:13:44;34.50;;;19.58;;
11743;SDS011;5929;51.906;7.674;2022-10-31T12:16:22;33.28;;;19.27;;
11743;SDS011;5929;51.906;7.674;2022-10-31T12:18:58;32.45;;;19.92;;
11743;SDS011;5929;51.906;7.674;2022-10-31T12:21:34;31.95;;;20.30;;
11743;SDS011;5929;51.906;7.674;2022-10-31T12:24:23;33.47;;;19.52;;
11743;SDS011;5929;51.906;7.674;2022-10-31T12:27:15;34.33;;;20.40;;
11743;SDS011;5929;51.906;7.674;2022-10-31T12:29:55;32.50;;;20.20;;
11743;SDS011;5929;51.906;7.674;2022-10-31T12:32:38;30.65;;;19.23;;
11743;SDS011;5929;51.906;7.674;2022-10-31T12:35:19;29.25;;;17.08;;
11743;SDS011;5929;51.906;7.674;2022-10-31T12:38:02;29.02;;;17.38;;
11743;SDS011;5929;51.906;7.674;2022-10-31T12:40:53;29.20;;;17.85;;
11743;SDS011;5929;51.906;7.674;2022-10-31T12:43:44;33.03;;;19.92;;
11743;SDS011;5929;51.906;7.674;2022-10-31T12:46:15;29.77;;;18.90;;
11743;SDS011;5929;51.906;7.674;2022-10-31T12:49:04;30.05;;;18.85;;
11743;SDS011;5929;51.906;7.674;2022-10-31T12:51:40;34.17;;;21.15;;
11743;SDS011;5929;51.906;7.674;2022-10-31T12:54:21;34.58;;;21.25;;
11743;SDS011;5929;51.906;7.674;2022-10-31T12:57:02;34.95;;;21.20;;
11743;SDS011;5929;51.906;7.674;2022-10-31T12:59:38;35.90;;;21.50;;
11743;SDS011;5929;51.906;7.674;2022-10-31T13:02:10;37.67;;;21.10;;
11743;SDS011;5929;51.906;7.674;2022-10-31T13:04:43;37.85;;;22.85;;
11743;SDS011;5929;51.906;7.674;2022-10-31T13:07:15;34.08;;;20.88;;
11743;SDS011;5929;51.906;7.674;2022-10-31T13:09:47;33.15;;;22.25;;
11743;SDS011;5929;51.906;7.674;2022-10-31T13:12:22;39.75;;;22.85;;
11743;SDS011;5929;51.906;7.674;2022-10-31T13:14:51;38.38;;;22.17;;
11743;SDS011;5929;51.906;7.674;2022-10-31T13:17:22;42.40;;;23.42;;
11743;SDS011;5929;51.906;7.674;2022-10-31T13:19:59;42.45;;;23.30;;
11743;SDS011;5929;51.906;7.674;2022-10-31T13:22:39;40.45;;;22.55;;
11743;SDS011;5929;51.906;7.674;2022-10-31T13:25:11;38.85;;;22.02;;
11743;SDS011;5929;51.906;7.674;2022-10-31T13:27:44;43.70;;;24.98;;
11743;SDS011;5929;51.906;7.674;2022-10-31T13:30:18;40.55;;;22.13;;
11743;SDS011;5929;51.906;7.674;2022-10-31T13:32:47;39.40;;;22.33;;
11743;SDS011;5929;51.906;7.674;2022-10-31T13:35:19;42.63;;;23.25;;
11743;SDS011;5929;51.906;7.674;2022-10-31T13:37:52;41.60;;;23.63;;
11743;SDS011;5929;51.906;7.674;2022-10-31T13:40:33;38.67;;;22.85;;
11743;SDS011;5929;51.906;7.674;2022-10-31T13:43:10;43.88;;;24.65;;
11743;SDS011;5929;51.906;7.674;2022-10-31T13:45:48;40.33;;;24.42;;
11743;SDS011;5929;51.906;7.674;2022-10-31T13:48:28;42.92;;;24.52;;
11743;SDS011;5929;51.906;7.674;2022-10-31T13:51:03;44.08;;;24.80;;
11743;SDS011;5929;51.906;7.674;2022-10-31T13:53:39;41.70;;;23.95;;
11743;SDS011;5929;51.906;7.674;2022-10-31T13:56:16;44.63;;;24.55;;
11743;SDS011;5929;51.906;7.674;2022-10-31T14:01:46;41.75;;;25.48;;
11743;SDS011;5929;51.906;7.674;2022-10-31T14:04:16;40.20;;;25.40;;
11743;SDS011;5929;51.906;7.674;2022-10-31T14:06:49;42.92;;;24.60;;
11743;SDS011;5929;51.906;7.674;2022-10-31T14:09:24;43.08;;;26.52;;
11743;SDS011;5929;51.906;7.674;2022-10-31T14:11:55;46.28;;;25.85;;
11743;SDS011;5929;51.906;7.674;2022-10-31T14:14:26;39.38;;;25.38;;
11743;SDS011;5929;51.906;7.674;2022-10-31T14:17:01;46.50;;;26.23;;
11743;SDS011;5929;51.906;7.674;2022-10-31T14:19:28;43.88;;;25.88;;
11743;SDS011;5929;51.906;7.674;2022-10-31T14:21:55;41.33;;;26.05;;
11743;SDS011;5929;51.906;7.674;2022-10-31T14:24:31;42.17;;;24.60;;
11743;SDS011;5929;51.906;7.674;2022-10-31T14:27:31;42.30;;;24.55;;
11743;SDS011;5929;51.906;7.674;2022-10-31T14:30:12;40.03;;;26.98;;
11743;SDS011;5929;51.906;7.674;2022-10-31T14:32:41;42.25;;;25.63;;
11743;SDS011;5929;51.906;7.674;2022-10-31T14:35:12;43.30;;;27.73;;
11743;SDS011;5929;51.906;7.674;2022-10-31T14:37:49;44.05;;;25.58;;
11743;SDS011;5929;51.906;7.674;2022-10-31T14:40:27;48.28;;;25.90;;
11743;SDS011;5929;51.906;7.674;2022-10-31T14:43:07;43.78;;;26.55;;
11743;SDS011;5929;51.906;7.674;2022-10-31T14:45:57;43.28;;;25.25;;
11743;SDS011;5929;51.906;7.674;2022-10-31T14:48:32;47.00;;;29.00;;
11743;SDS011;5929;51.906;7.674;2022-10-31T14:51:12;44.30;;;29.35;;
11743;SDS011;5929;51.906;7.674;2022-10-31T14:53:45;47.50;;;29.17;;
11743;SDS011;5929;51.906;7.674;2022-10-31T14:56:17;46.05;;;28.65;;
11743;SDS011;5929;51.906;7.674;2022-10-31T14:58:47;46.63;;;28.95;;
11743;SDS011;5929;51.906;7.674;2022-10-31T15:01:18;42.75;;;27.70;;
11743;SDS011;5929;51.906;7.674;2022-10-31T15:03:49;44.47;;;28.25;;
11743;SDS011;5929;51.906;7.674;2022-10-31T15:06:17;43.88;;;28.70;;